TVS4NQ LGKO-LKPR
Flight info
| Callsign | TVS4NQ |
|---|---|
| Flight time | 2h 33m |
| Altitude | 30000 |
| Route | LARKI UL609 MES UG18 GIKAS/N0439F320 UN133 PEREN UL863 EVIVI L863 OKANA DCT TONDO DCT BEGLA DCT NAVTI DCT BODAL DCT VLM |
| Aircraft | B738/M-SDFGHIJ1LORVWXYZ/LB1 |
Departure
| Time | 2026-05-07 15:58 |
|---|---|
| Airport | Kos International Airport "Ippokratis" (LGKO) |
Arrival
| Time | 2026-05-07 18:31 |
|---|---|
| Airport | Václav Havel Airport Prague (LKPR) |
| Time | Latitude | Longitude | Altitude | Speed | Heading |
|---|---|---|---|---|---|
| 2026-05-07 15:23 | 36.80113 | 27.08956 | 418 ft | 0 kts | 58° |
| 2026-05-07 15:47 | 36.80108 | 27.08947 | 418 ft | 3 kts | 56° |
| 2026-05-07 15:48 | 36.80097 | 27.08925 | 407 ft | 3 kts | 58° |
| 2026-05-07 15:48 | 36.80087 | 27.08904 | 411 ft | 3 kts | 62° |
| 2026-05-07 15:48 | 36.80080 | 27.08884 | 407 ft | 2 kts | 84° |
| 2026-05-07 15:48 | 36.80081 | 27.08872 | 407 ft | 2 kts | 125° |
| 2026-05-07 15:49 | 36.80091 | 27.08861 | 408 ft | 3 kts | 148° |
| 2026-05-07 15:49 | 36.80089 | 27.08862 | 407 ft | 2 kts | 147° |
| 2026-05-07 15:49 | 36.80079 | 27.08870 | 407 ft | 1 kts | 148° |
| 2026-05-07 15:49 | 36.80075 | 27.08873 | 407 ft | 0 kts | 148° |
| 2026-05-07 15:51 | 36.80059 | 27.08885 | 408 ft | 6 kts | 148° |
| 2026-05-07 15:51 | 36.80002 | 27.08930 | 414 ft | 13 kts | 148° |
| 2026-05-07 15:52 | 36.79912 | 27.08979 | 418 ft | 14 kts | 173° |
| 2026-05-07 15:52 | 36.79815 | 27.08984 | 410 ft | 14 kts | 178° |
| 2026-05-07 15:52 | 36.79723 | 27.08988 | 412 ft | 13 kts | 178° |
| 2026-05-07 15:52 | 36.79633 | 27.08992 | 415 ft | 13 kts | 175° |
| 2026-05-07 15:53 | 36.79556 | 27.09038 | 410 ft | 12 kts | 148° |
| 2026-05-07 15:53 | 36.79483 | 27.09095 | 409 ft | 12 kts | 148° |
| 2026-05-07 15:53 | 36.79401 | 27.09158 | 409 ft | 16 kts | 148° |
| 2026-05-07 15:53 | 36.79293 | 27.09244 | 409 ft | 21 kts | 147° |
| 2026-05-07 15:54 | 36.79152 | 27.09349 | 403 ft | 26 kts | 151° |
| 2026-05-07 15:54 | 36.78991 | 27.09475 | 395 ft | 29 kts | 149° |
| 2026-05-07 15:54 | 36.78826 | 27.09604 | 392 ft | 27 kts | 148° |
| 2026-05-07 15:54 | 36.78671 | 27.09724 | 392 ft | 25 kts | 148° |
| 2026-05-07 15:55 | 36.78594 | 27.09822 | 388 ft | 10 kts | 131° |
| 2026-05-07 15:55 | 36.78556 | 27.09821 | 387 ft | 3 kts | 233° |
| 2026-05-07 15:55 | 36.78564 | 27.09796 | 388 ft | 3 kts | 330° |
| 2026-05-07 15:55 | 36.78588 | 27.09790 | 389 ft | 3 kts | 343° |
| 2026-05-07 15:56 | 36.78607 | 27.09777 | 390 ft | 3 kts | 330° |
| 2026-05-07 15:56 | 36.78623 | 27.09764 | 390 ft | 3 kts | 326° |
| 2026-05-07 15:56 | 36.78637 | 27.09753 | 391 ft | 0 kts | 327° |
| 2026-05-07 15:57 | 36.78639 | 27.09751 | 391 ft | 3 kts | 327° |
| 2026-05-07 15:57 | 36.78737 | 27.09674 | 392 ft | 47 kts | 328° |
| 2026-05-07 15:57 | 36.79219 | 27.09298 | 405 ft | 116 kts | 328° |
| 2026-05-07 15:57 | 36.80070 | 27.08633 | 465 ft | 168 kts | 326° |
| 2026-05-07 15:58 | 36.81073 | 27.07858 | 1255 ft | 166 kts | 325° |
| 2026-05-07 15:58 | 36.81830 | 27.06774 | 1935 ft | 175 kts | 286° |
| 2026-05-07 15:58 | 36.81784 | 27.05222 | 2490 ft | 189 kts | 253° |
| 2026-05-07 15:58 | 36.81572 | 27.03540 | 2857 ft | 210 kts | 276° |
| 2026-05-07 15:59 | 36.82158 | 27.01791 | 3024 ft | 230 kts | 307° |
| 2026-05-07 15:59 | 36.83207 | 27.00292 | 3672 ft | 229 kts | 311° |
| 2026-05-07 15:59 | 36.84239 | 26.98630 | 3887 ft | 255 kts | 305° |
| 2026-05-07 15:59 | 36.85236 | 26.96758 | 4437 ft | 265 kts | 303° |
| 2026-05-07 16:00 | 36.86231 | 26.94798 | 5189 ft | 267 kts | 303° |
| 2026-05-07 16:00 | 36.87219 | 26.92830 | 5962 ft | 269 kts | 303° |
| 2026-05-07 16:00 | 36.88236 | 26.90826 | 6622 ft | 274 kts | 303° |
| 2026-05-07 16:00 | 36.89237 | 26.88829 | 7472 ft | 271 kts | 303° |
| 2026-05-07 16:01 | 36.90245 | 26.86828 | 8077 ft | 276 kts | 303° |
| 2026-05-07 16:01 | 36.91258 | 26.84798 | 8935 ft | 273 kts | 302° |
| 2026-05-07 16:01 | 36.92274 | 26.82734 | 9518 ft | 281 kts | 303° |
| 2026-05-07 16:01 | 36.93301 | 26.80674 | 10341 ft | 277 kts | 303° |
| 2026-05-07 16:02 | 36.94308 | 26.78662 | 11038 ft | 279 kts | 303° |
| 2026-05-07 16:02 | 36.95379 | 26.76520 | 11287 ft | 298 kts | 303° |
| 2026-05-07 16:02 | 36.96549 | 26.74305 | 11664 ft | 311 kts | 311° |
| 2026-05-07 16:02 | 36.98323 | 26.72711 | 11821 ft | 330 kts | 339° |
| 2026-05-07 16:03 | 37.00651 | 26.72329 | 12066 ft | 348 kts | 6° |
| 2026-05-07 16:03 | 37.02949 | 26.73364 | 12628 ft | 357 kts | 28° |
| 2026-05-07 16:03 | 37.05087 | 26.74880 | 13611 ft | 349 kts | 20° |
| 2026-05-07 16:03 | 37.07432 | 26.75701 | 14103 ft | 354 kts | 7° |
| 2026-05-07 16:04 | 37.09902 | 26.76108 | 14579 ft | 360 kts | 5° |
| 2026-05-07 16:04 | 37.12370 | 26.76422 | 15200 ft | 361 kts | 358° |
| 2026-05-07 16:04 | 37.14873 | 26.76083 | 15753 ft | 363 kts | 343° |
| 2026-05-07 16:04 | 37.17243 | 26.75048 | 16520 ft | 360 kts | 337° |
| 2026-05-07 16:05 | 37.19621 | 26.73946 | 16940 ft | 369 kts | 338° |
| 2026-05-07 16:05 | 37.22067 | 26.72870 | 17460 ft | 375 kts | 338° |
| 2026-05-07 16:05 | 37.24543 | 26.71806 | 18080 ft | 377 kts | 338° |
| 2026-05-07 16:05 | 37.27037 | 26.70743 | 18648 ft | 380 kts | 338° |
| 2026-05-07 16:06 | 37.29553 | 26.69669 | 19161 ft | 383 kts | 338° |
| 2026-05-07 16:06 | 37.32084 | 26.68587 | 19678 ft | 386 kts | 338° |
| 2026-05-07 16:06 | 37.34636 | 26.67492 | 20198 ft | 388 kts | 338° |
| 2026-05-07 16:06 | 37.37206 | 26.66388 | 20721 ft | 391 kts | 338° |
| 2026-05-07 16:07 | 37.39787 | 26.65278 | 21222 ft | 393 kts | 338° |
| 2026-05-07 16:07 | 37.42353 | 26.64173 | 21710 ft | 396 kts | 338° |
| 2026-05-07 16:07 | 37.44968 | 26.63045 | 22211 ft | 399 kts | 338° |
| 2026-05-07 16:07 | 37.47599 | 26.61910 | 22692 ft | 401 kts | 338° |
| 2026-05-07 16:08 | 37.50248 | 26.60766 | 23170 ft | 404 kts | 338° |
| 2026-05-07 16:08 | 37.52915 | 26.59614 | 23641 ft | 406 kts | 338° |
| 2026-05-07 16:08 | 37.55597 | 26.58454 | 24056 ft | 408 kts | 338° |
| 2026-05-07 16:08 | 37.58291 | 26.57288 | 24444 ft | 410 kts | 338° |
| 2026-05-07 16:09 | 37.60997 | 26.56116 | 24834 ft | 412 kts | 338° |
| 2026-05-07 16:09 | 37.62793 | 26.55338 | 25083 ft | 413 kts | 338° |
| 2026-05-07 16:09 | 37.65519 | 26.54152 | 25459 ft | 415 kts | 337° |
| 2026-05-07 16:09 | 37.68151 | 26.52655 | 25813 ft | 414 kts | 329° |
| 2026-05-07 16:10 | 37.70587 | 26.50697 | 26157 ft | 414 kts | 320° |
| 2026-05-07 16:10 | 37.72795 | 26.48342 | 26503 ft | 415 kts | 317° |
| 2026-05-07 16:10 | 37.74972 | 26.45926 | 26832 ft | 418 kts | 317° |
| 2026-05-07 16:10 | 37.77136 | 26.43518 | 27183 ft | 419 kts | 317° |
| 2026-05-07 16:11 | 37.79337 | 26.41090 | 27662 ft | 417 kts | 317° |
| 2026-05-07 16:11 | 37.81529 | 26.38688 | 28183 ft | 415 kts | 317° |
| 2026-05-07 16:11 | 37.83688 | 26.36333 | 28652 ft | 414 kts | 317° |
| 2026-05-07 16:11 | 37.85870 | 26.33953 | 29071 ft | 414 kts | 317° |
| 2026-05-07 16:12 | 37.88050 | 26.31571 | 29506 ft | 413 kts | 317° |
| 2026-05-07 16:12 | 37.90231 | 26.29181 | 29981 ft | 412 kts | 317° |
| 2026-05-07 16:12 | 37.92391 | 26.26809 | 30421 ft | 410 kts | 317° |
| 2026-05-07 16:12 | 37.94518 | 26.24471 | 30848 ft | 407 kts | 317° |
| 2026-05-07 16:13 | 37.96657 | 26.22119 | 31289 ft | 404 kts | 317° |
| 2026-05-07 16:13 | 37.98779 | 26.19784 | 31713 ft | 402 kts | 317° |
| 2026-05-07 16:13 | 38.00889 | 26.17460 | 32090 ft | 401 kts | 317° |
| 2026-05-07 16:14 | 38.05112 | 26.12803 | 32138 ft | 405 kts | 317° |
| 2026-05-07 16:14 | 38.09346 | 26.08128 | 32130 ft | 400 kts | 317° |
| 2026-05-07 16:15 | 38.13547 | 26.03480 | 32136 ft | 401 kts | 317° |
| 2026-05-07 16:15 | 38.17756 | 25.98815 | 32130 ft | 402 kts | 317° |
| 2026-05-07 16:16 | 38.21960 | 25.94149 | 32140 ft | 403 kts | 317° |
| 2026-05-07 16:16 | 38.26231 | 25.89476 | 32131 ft | 405 kts | 320° |
| 2026-05-07 16:17 | 38.30708 | 25.85146 | 32124 ft | 406 kts | 321° |
| 2026-05-07 16:17 | 38.35237 | 25.80800 | 32129 ft | 406 kts | 321° |
| 2026-05-07 16:18 | 38.39717 | 25.76430 | 32126 ft | 407 kts | 321° |
| 2026-05-07 16:18 | 38.44217 | 25.72027 | 32130 ft | 407 kts | 321° |
| 2026-05-07 16:19 | 38.48712 | 25.67630 | 32119 ft | 407 kts | 321° |
| 2026-05-07 16:19 | 38.53184 | 25.63252 | 32123 ft | 407 kts | 321° |
| 2026-05-07 16:20 | 38.57682 | 25.58840 | 32121 ft | 407 kts | 321° |
| 2026-05-07 16:20 | 38.62180 | 25.54421 | 32122 ft | 408 kts | 320° |
| 2026-05-07 16:21 | 38.66661 | 25.50010 | 32121 ft | 408 kts | 320° |
| 2026-05-07 16:21 | 38.71168 | 25.45567 | 32120 ft | 408 kts | 320° |
| 2026-05-07 16:22 | 38.75670 | 25.41122 | 32116 ft | 408 kts | 320° |
| 2026-05-07 16:22 | 38.80140 | 25.36700 | 32122 ft | 408 kts | 320° |
| 2026-05-07 16:23 | 38.84646 | 25.32236 | 32117 ft | 409 kts | 320° |
| 2026-05-07 16:23 | 38.89129 | 25.27788 | 32121 ft | 409 kts | 320° |
| 2026-05-07 16:24 | 38.93633 | 25.23311 | 32116 ft | 409 kts | 320° |
| 2026-05-07 16:24 | 38.98130 | 25.18833 | 32118 ft | 409 kts | 320° |
| 2026-05-07 16:25 | 39.02627 | 25.14349 | 32111 ft | 409 kts | 320° |
| 2026-05-07 16:25 | 39.07124 | 25.09856 | 32118 ft | 408 kts | 320° |
| 2026-05-07 16:26 | 39.11585 | 25.05392 | 32115 ft | 408 kts | 320° |
| 2026-05-07 16:26 | 39.16069 | 25.00898 | 32113 ft | 408 kts | 320° |
| 2026-05-07 16:27 | 39.20524 | 24.96426 | 32108 ft | 408 kts | 320° |
| 2026-05-07 16:27 | 39.25006 | 24.91922 | 32116 ft | 408 kts | 320° |
| 2026-05-07 16:28 | 39.29493 | 24.87407 | 32107 ft | 408 kts | 320° |
| 2026-05-07 16:28 | 39.33975 | 24.82889 | 32109 ft | 408 kts | 320° |
| 2026-05-07 16:29 | 39.38427 | 24.78392 | 32105 ft | 408 kts | 320° |
| 2026-05-07 16:29 | 39.42902 | 24.73864 | 32112 ft | 408 kts | 320° |
| 2026-05-07 16:30 | 39.47354 | 24.69355 | 32110 ft | 408 kts | 320° |
| 2026-05-07 16:30 | 39.52080 | 24.65249 | 32115 ft | 411 kts | 331° |
| 2026-05-07 16:31 | 39.57251 | 24.62031 | 32102 ft | 412 kts | 332° |
| 2026-05-07 16:31 | 39.62437 | 24.58842 | 32113 ft | 412 kts | 332° |
| 2026-05-07 16:32 | 39.67618 | 24.55613 | 32101 ft | 413 kts | 332° |
| 2026-05-07 16:32 | 39.72770 | 24.52375 | 32104 ft | 413 kts | 332° |
| 2026-05-07 16:33 | 39.77947 | 24.49107 | 32100 ft | 413 kts | 332° |
| 2026-05-07 16:33 | 39.83130 | 24.45829 | 32115 ft | 413 kts | 332° |
| 2026-05-07 16:34 | 39.88275 | 24.42571 | 32108 ft | 413 kts | 332° |
| 2026-05-07 16:34 | 39.93458 | 24.39282 | 32120 ft | 413 kts | 332° |
| 2026-05-07 16:35 | 39.98628 | 24.35997 | 32100 ft | 413 kts | 332° |
| 2026-05-07 16:35 | 40.03772 | 24.32722 | 32103 ft | 413 kts | 332° |
| 2026-05-07 16:36 | 40.08933 | 24.29432 | 32106 ft | 412 kts | 332° |
| 2026-05-07 16:36 | 40.14103 | 24.26130 | 32110 ft | 412 kts | 332° |
| 2026-05-07 16:37 | 40.19260 | 24.22830 | 32106 ft | 412 kts | 332° |
| 2026-05-07 16:37 | 40.24375 | 24.19552 | 32108 ft | 412 kts | 332° |
| 2026-05-07 16:38 | 40.29533 | 24.16241 | 32099 ft | 413 kts | 332° |
| 2026-05-07 16:38 | 40.34696 | 24.12920 | 32106 ft | 412 kts | 332° |
| 2026-05-07 16:39 | 40.39814 | 24.09623 | 32096 ft | 412 kts | 332° |
| 2026-05-07 16:39 | 40.44953 | 24.06307 | 32109 ft | 411 kts | 332° |
| 2026-05-07 16:40 | 40.44973 | 24.06294 | 32109 ft | 411 kts | 332° |
| 2026-05-07 16:40 | 40.49986 | 24.03053 | 32111 ft | 410 kts | 332° |
| 2026-05-07 16:41 | 40.55061 | 23.99767 | 32107 ft | 409 kts | 332° |
| 2026-05-07 16:41 | 40.60164 | 23.96459 | 32112 ft | 408 kts | 332° |
| 2026-05-07 16:42 | 40.65287 | 23.93225 | 32113 ft | 408 kts | 332° |
| 2026-05-07 16:42 | 40.70417 | 23.90021 | 32112 ft | 408 kts | 332° |
| 2026-05-07 16:43 | 40.75543 | 23.86805 | 32111 ft | 408 kts | 332° |
| 2026-05-07 16:43 | 40.80665 | 23.83578 | 32119 ft | 408 kts | 332° |
| 2026-05-07 16:44 | 40.85752 | 23.80366 | 32114 ft | 408 kts | 332° |
| 2026-05-07 16:44 | 40.90875 | 23.77124 | 32123 ft | 408 kts | 332° |
| 2026-05-07 16:45 | 40.96001 | 23.73875 | 32119 ft | 408 kts | 332° |
| 2026-05-07 16:45 | 41.01124 | 23.70623 | 32128 ft | 409 kts | 332° |
| 2026-05-07 16:46 | 41.06255 | 23.67360 | 32123 ft | 409 kts | 332° |
| 2026-05-07 16:46 | 41.11348 | 23.64115 | 32124 ft | 409 kts | 332° |
| 2026-05-07 16:47 | 41.16479 | 23.60840 | 32126 ft | 409 kts | 332° |
| 2026-05-07 16:47 | 41.21606 | 23.57562 | 32121 ft | 409 kts | 332° |
| 2026-05-07 16:48 | 41.26719 | 23.54286 | 32124 ft | 408 kts | 332° |
| 2026-05-07 16:48 | 41.31786 | 23.51028 | 32125 ft | 407 kts | 332° |
| 2026-05-07 16:49 | 41.36878 | 23.47750 | 32142 ft | 406 kts | 332° |
| 2026-05-07 16:49 | 41.41967 | 23.44465 | 32130 ft | 406 kts | 332° |
| 2026-05-07 16:50 | 41.47042 | 23.41163 | 32129 ft | 406 kts | 331° |
| 2026-05-07 16:50 | 41.52109 | 23.37857 | 32145 ft | 405 kts | 331° |
| 2026-05-07 16:51 | 41.57135 | 23.34572 | 32131 ft | 405 kts | 331° |
| 2026-05-07 16:51 | 41.62193 | 23.31262 | 32137 ft | 405 kts | 331° |
| 2026-05-07 16:52 | 41.67246 | 23.27949 | 32136 ft | 405 kts | 331° |
| 2026-05-07 16:52 | 41.72303 | 23.24628 | 32144 ft | 405 kts | 331° |
| 2026-05-07 16:53 | 41.77328 | 23.21323 | 32149 ft | 405 kts | 331° |
| 2026-05-07 16:53 | 41.82392 | 23.17985 | 32147 ft | 406 kts | 331° |
| 2026-05-07 16:54 | 41.87459 | 23.14640 | 32143 ft | 406 kts | 331° |
| 2026-05-07 16:54 | 41.92531 | 23.11286 | 32140 ft | 406 kts | 331° |
| 2026-05-07 16:55 | 41.97605 | 23.07924 | 32124 ft | 406 kts | 331° |
| 2026-05-07 16:55 | 42.02670 | 23.04562 | 32128 ft | 406 kts | 331° |
| 2026-05-07 16:56 | 42.07693 | 23.01222 | 32119 ft | 405 kts | 331° |
| 2026-05-07 16:56 | 42.15258 | 22.96181 | 32117 ft | 404 kts | 330° |
| 2026-05-07 16:57 | 42.20296 | 22.92816 | 32115 ft | 404 kts | 330° |
| 2026-05-07 16:57 | 42.25326 | 22.89450 | 32118 ft | 404 kts | 330° |
| 2026-05-07 16:58 | 42.30323 | 22.86101 | 32111 ft | 404 kts | 330° |
| 2026-05-07 16:58 | 42.35355 | 22.82724 | 32113 ft | 404 kts | 330° |
| 2026-05-07 16:59 | 42.40390 | 22.79337 | 32106 ft | 404 kts | 330° |
| 2026-05-07 16:59 | 42.45424 | 22.75945 | 32104 ft | 404 kts | 330° |
| 2026-05-07 17:00 | 42.50455 | 22.72548 | 32102 ft | 404 kts | 330° |
| 2026-05-07 17:00 | 42.55451 | 22.69170 | 32102 ft | 404 kts | 330° |
| 2026-05-07 17:01 | 42.60482 | 22.65762 | 32101 ft | 404 kts | 330° |
| 2026-05-07 17:01 | 42.65513 | 22.62347 | 32105 ft | 404 kts | 330° |
| 2026-05-07 17:02 | 42.70551 | 22.58921 | 32097 ft | 405 kts | 330° |
| 2026-05-07 17:02 | 42.75556 | 22.55512 | 32102 ft | 405 kts | 330° |
| 2026-05-07 17:03 | 42.80597 | 22.52071 | 32094 ft | 406 kts | 330° |
| 2026-05-07 17:03 | 42.85599 | 22.48516 | 32097 ft | 404 kts | 325° |
| 2026-05-07 17:04 | 42.90281 | 22.44292 | 32093 ft | 404 kts | 323° |
| 2026-05-07 17:04 | 42.94886 | 22.39978 | 32091 ft | 404 kts | 323° |
| 2026-05-07 17:05 | 42.99541 | 22.35638 | 32077 ft | 406 kts | 323° |
| 2026-05-07 17:05 | 43.04213 | 22.31310 | 32080 ft | 406 kts | 323° |
| 2026-05-07 17:06 | 43.08896 | 22.26977 | 32081 ft | 407 kts | 323° |
| 2026-05-07 17:06 | 43.13552 | 22.22666 | 32065 ft | 407 kts | 323° |
| 2026-05-07 17:07 | 43.18240 | 22.18318 | 32063 ft | 407 kts | 323° |
| 2026-05-07 17:07 | 43.22921 | 22.13967 | 32056 ft | 407 kts | 323° |
| 2026-05-07 17:08 | 43.27605 | 22.09605 | 32054 ft | 407 kts | 323° |
| 2026-05-07 17:08 | 43.32285 | 22.05238 | 32060 ft | 407 kts | 323° |
| 2026-05-07 17:09 | 43.36929 | 22.00897 | 32046 ft | 406 kts | 323° |
| 2026-05-07 17:09 | 43.41600 | 21.96522 | 32055 ft | 407 kts | 323° |
| 2026-05-07 17:10 | 43.46279 | 21.92131 | 32056 ft | 407 kts | 323° |
| 2026-05-07 17:10 | 43.50955 | 21.87735 | 32049 ft | 408 kts | 323° |
| 2026-05-07 17:11 | 43.55611 | 21.83350 | 32055 ft | 408 kts | 323° |
| 2026-05-07 17:11 | 43.60299 | 21.78925 | 32041 ft | 408 kts | 323° |
| 2026-05-07 17:12 | 43.64984 | 21.74495 | 32050 ft | 409 kts | 323° |
| 2026-05-07 17:12 | 43.69674 | 21.70052 | 32039 ft | 409 kts | 323° |
| 2026-05-07 17:13 | 43.74364 | 21.65601 | 32042 ft | 409 kts | 323° |
| 2026-05-07 17:13 | 43.79032 | 21.61160 | 32043 ft | 410 kts | 323° |
| 2026-05-07 17:14 | 43.83731 | 21.56683 | 32037 ft | 410 kts | 323° |
| 2026-05-07 17:14 | 43.88431 | 21.52196 | 32045 ft | 410 kts | 323° |
| 2026-05-07 17:15 | 43.93131 | 21.47700 | 32036 ft | 411 kts | 322° |
| 2026-05-07 17:15 | 43.97836 | 21.43190 | 32037 ft | 411 kts | 322° |
| 2026-05-07 17:16 | 44.02506 | 21.38706 | 32037 ft | 411 kts | 322° |
| 2026-05-07 17:16 | 44.07210 | 21.34179 | 32040 ft | 411 kts | 322° |
| 2026-05-07 17:17 | 44.11913 | 21.29644 | 32032 ft | 411 kts | 322° |
| 2026-05-07 17:17 | 44.16615 | 21.25102 | 32034 ft | 411 kts | 322° |
| 2026-05-07 17:18 | 44.21280 | 21.20587 | 32032 ft | 411 kts | 322° |
| 2026-05-07 17:18 | 44.25972 | 21.16036 | 32026 ft | 411 kts | 322° |
| 2026-05-07 17:19 | 44.30663 | 21.11477 | 32029 ft | 411 kts | 322° |
| 2026-05-07 17:19 | 44.35350 | 21.06913 | 32028 ft | 411 kts | 322° |
| 2026-05-07 17:20 | 44.40003 | 21.02374 | 32017 ft | 411 kts | 322° |
| 2026-05-07 17:20 | 44.44686 | 20.97795 | 32033 ft | 411 kts | 322° |
| 2026-05-07 17:21 | 44.49370 | 20.93207 | 32031 ft | 411 kts | 322° |
| 2026-05-07 17:21 | 44.54056 | 20.88608 | 32030 ft | 411 kts | 322° |
| 2026-05-07 17:22 | 44.58715 | 20.84026 | 32024 ft | 412 kts | 321° |
| 2026-05-07 17:22 | 44.63402 | 20.79407 | 32019 ft | 412 kts | 321° |
| 2026-05-07 17:23 | 44.68092 | 20.74776 | 32017 ft | 412 kts | 321° |
| 2026-05-07 17:23 | 44.72781 | 20.70137 | 32022 ft | 412 kts | 321° |
| 2026-05-07 17:24 | 44.77475 | 20.65483 | 32024 ft | 413 kts | 321° |
| 2026-05-07 17:24 | 44.82139 | 20.60850 | 32022 ft | 413 kts | 321° |
| 2026-05-07 17:25 | 44.86838 | 20.56172 | 32020 ft | 414 kts | 321° |
| 2026-05-07 17:25 | 44.91538 | 20.51484 | 32020 ft | 414 kts | 321° |
| 2026-05-07 17:26 | 44.96242 | 20.46781 | 32017 ft | 414 kts | 321° |
| 2026-05-07 17:26 | 45.00916 | 20.42101 | 32018 ft | 415 kts | 321° |
| 2026-05-07 17:27 | 45.05620 | 20.37380 | 32020 ft | 415 kts | 321° |
| 2026-05-07 17:27 | 45.10325 | 20.32648 | 32016 ft | 415 kts | 321° |
| 2026-05-07 17:28 | 45.15028 | 20.27909 | 32029 ft | 416 kts | 320° |
| 2026-05-07 17:28 | 45.19716 | 20.23174 | 32020 ft | 417 kts | 320° |
| 2026-05-07 17:29 | 45.24456 | 20.18376 | 32009 ft | 420 kts | 320° |
| 2026-05-07 17:29 | 45.29217 | 20.13548 | 32003 ft | 421 kts | 320° |
| 2026-05-07 17:30 | 45.33992 | 20.08695 | 31993 ft | 423 kts | 320° |
| 2026-05-07 17:30 | 45.38777 | 20.03823 | 31995 ft | 424 kts | 319° |
| 2026-05-07 17:31 | 45.43536 | 19.98966 | 32000 ft | 424 kts | 319° |
| 2026-05-07 17:31 | 45.48327 | 19.94068 | 31999 ft | 424 kts | 319° |
| 2026-05-07 17:32 | 45.53110 | 19.89166 | 32000 ft | 423 kts | 319° |
| 2026-05-07 17:32 | 45.57081 | 19.85088 | 32000 ft | 423 kts | 319° |
| 2026-05-07 17:33 | 45.62628 | 19.79379 | 31998 ft | 423 kts | 319° |
| 2026-05-07 17:33 | 45.67390 | 19.74467 | 32000 ft | 422 kts | 319° |
| 2026-05-07 17:34 | 45.72151 | 19.69545 | 32001 ft | 422 kts | 319° |
| 2026-05-07 17:34 | 45.76108 | 19.65446 | 31998 ft | 422 kts | 319° |
| 2026-05-07 17:35 | 45.80869 | 19.60505 | 32007 ft | 422 kts | 319° |
| 2026-05-07 17:35 | 45.86396 | 19.54755 | 32002 ft | 423 kts | 319° |
| 2026-05-07 17:36 | 45.90350 | 19.50633 | 31999 ft | 423 kts | 319° |
| 2026-05-07 17:36 | 45.95108 | 19.45662 | 32002 ft | 423 kts | 318° |
| 2026-05-07 17:37 | 45.99868 | 19.40679 | 32005 ft | 424 kts | 318° |
| 2026-05-07 17:37 | 46.05392 | 19.34848 | 31999 ft | 423 kts | 316° |
| 2026-05-07 17:38 | 46.09203 | 19.30385 | 32000 ft | 421 kts | 314° |
| 2026-05-07 17:38 | 46.13633 | 19.24964 | 31998 ft | 420 kts | 314° |
| 2026-05-07 17:39 | 46.18094 | 19.19506 | 31999 ft | 420 kts | 314° |
| 2026-05-07 17:39 | 46.22562 | 19.14073 | 31999 ft | 420 kts | 314° |
| 2026-05-07 17:40 | 46.27034 | 19.08643 | 31997 ft | 419 kts | 314° |
| 2026-05-07 17:40 | 46.31463 | 19.03260 | 31999 ft | 419 kts | 314° |
| 2026-05-07 17:41 | 46.35919 | 18.97833 | 32000 ft | 418 kts | 314° |
| 2026-05-07 17:41 | 46.40366 | 18.92404 | 31997 ft | 418 kts | 314° |
| 2026-05-07 17:42 | 46.44801 | 18.86976 | 31997 ft | 417 kts | 313° |
| 2026-05-07 17:42 | 46.49205 | 18.81575 | 31998 ft | 417 kts | 313° |
| 2026-05-07 17:43 | 46.53639 | 18.76125 | 31997 ft | 417 kts | 313° |
| 2026-05-07 17:43 | 46.58069 | 18.70667 | 31981 ft | 418 kts | 313° |
| 2026-05-07 17:44 | 46.62504 | 18.65191 | 31994 ft | 419 kts | 313° |
| 2026-05-07 17:44 | 46.66915 | 18.59733 | 31991 ft | 419 kts | 313° |
| 2026-05-07 17:45 | 46.71363 | 18.54216 | 31995 ft | 420 kts | 313° |
| 2026-05-07 17:45 | 46.75818 | 18.48679 | 32006 ft | 422 kts | 313° |
| 2026-05-07 17:46 | 46.80289 | 18.43109 | 31996 ft | 423 kts | 313° |
| 2026-05-07 17:46 | 46.84741 | 18.37549 | 31996 ft | 425 kts | 312° |
| 2026-05-07 17:47 | 46.89236 | 18.31926 | 31991 ft | 426 kts | 312° |
| 2026-05-07 17:47 | 46.93744 | 18.26271 | 31994 ft | 428 kts | 312° |
| 2026-05-07 17:48 | 46.98264 | 18.20589 | 31991 ft | 429 kts | 312° |
| 2026-05-07 17:48 | 47.02788 | 18.14890 | 31989 ft | 430 kts | 312° |
| 2026-05-07 17:49 | 47.07290 | 18.09203 | 31988 ft | 430 kts | 312° |
| 2026-05-07 17:49 | 47.11832 | 18.03455 | 31985 ft | 431 kts | 312° |
| 2026-05-07 17:50 | 47.16368 | 17.97700 | 31990 ft | 431 kts | 312° |
| 2026-05-07 17:50 | 47.20904 | 17.91931 | 31982 ft | 431 kts | 312° |
| 2026-05-07 17:51 | 47.25406 | 17.86192 | 31983 ft | 431 kts | 311° |
| 2026-05-07 17:51 | 47.29927 | 17.80416 | 31993 ft | 430 kts | 311° |
| 2026-05-07 17:52 | 47.34440 | 17.74635 | 31991 ft | 430 kts | 311° |
| 2026-05-07 17:52 | 47.38951 | 17.68843 | 32000 ft | 430 kts | 311° |
| 2026-05-07 17:53 | 47.43455 | 17.63046 | 32004 ft | 430 kts | 311° |
| 2026-05-07 17:53 | 47.47933 | 17.57269 | 31998 ft | 430 kts | 311° |
| 2026-05-07 17:54 | 47.52444 | 17.51436 | 31997 ft | 431 kts | 311° |
| 2026-05-07 17:54 | 47.56960 | 17.45583 | 31992 ft | 432 kts | 311° |
| 2026-05-07 17:55 | 47.61477 | 17.39715 | 31988 ft | 432 kts | 311° |
| 2026-05-07 17:55 | 47.65999 | 17.33825 | 31985 ft | 433 kts | 311° |
| 2026-05-07 17:56 | 47.70487 | 17.27966 | 31984 ft | 433 kts | 311° |
| 2026-05-07 17:56 | 47.75009 | 17.22049 | 31989 ft | 433 kts | 311° |
| 2026-05-07 17:57 | 47.78772 | 17.17114 | 31990 ft | 434 kts | 311° |
| 2026-05-07 17:57 | 47.84160 | 17.10302 | 31974 ft | 440 kts | 319° |
| 2026-05-07 17:58 | 47.89326 | 17.05346 | 31987 ft | 443 kts | 321° |
| 2026-05-07 17:58 | 47.94515 | 17.00520 | 31983 ft | 442 kts | 321° |
| 2026-05-07 17:59 | 47.99719 | 16.95618 | 31984 ft | 442 kts | 321° |
| 2026-05-07 17:59 | 48.04896 | 16.90683 | 31997 ft | 441 kts | 321° |
| 2026-05-07 18:00 | 48.10061 | 16.85733 | 32001 ft | 441 kts | 321° |
| 2026-05-07 18:00 | 48.15210 | 16.80783 | 31997 ft | 440 kts | 321° |
| 2026-05-07 18:01 | 48.20318 | 16.75864 | 31993 ft | 439 kts | 321° |
| 2026-05-07 18:01 | 48.25442 | 16.70918 | 31997 ft | 438 kts | 321° |
| 2026-05-07 18:02 | 48.33110 | 16.63493 | 31988 ft | 437 kts | 321° |
| 2026-05-07 18:03 | 48.38209 | 16.58541 | 31995 ft | 436 kts | 321° |
| 2026-05-07 18:03 | 48.43266 | 16.53618 | 31992 ft | 436 kts | 321° |
| 2026-05-07 18:04 | 48.48347 | 16.48660 | 31984 ft | 435 kts | 321° |
| 2026-05-07 18:04 | 48.53436 | 16.43682 | 31966 ft | 436 kts | 321° |
| 2026-05-07 18:05 | 48.58455 | 16.38765 | 31733 ft | 425 kts | 321° |
| 2026-05-07 18:05 | 48.60925 | 16.36341 | 31467 ft | 421 kts | 321° |
| 2026-05-07 18:05 | 48.63368 | 16.33938 | 31216 ft | 418 kts | 321° |
| 2026-05-07 18:05 | 48.65808 | 16.31531 | 30972 ft | 420 kts | 321° |
| 2026-05-07 18:06 | 48.68257 | 16.29113 | 30727 ft | 421 kts | 321° |
| 2026-05-07 18:06 | 48.70713 | 16.26687 | 30492 ft | 422 kts | 321° |
| 2026-05-07 18:06 | 48.73142 | 16.24288 | 30255 ft | 423 kts | 321° |
| 2026-05-07 18:06 | 48.75604 | 16.21854 | 30011 ft | 423 kts | 321° |
| 2026-05-07 18:07 | 48.78022 | 16.19364 | 29742 ft | 415 kts | 317° |
| 2026-05-07 18:07 | 48.80300 | 16.16730 | 29395 ft | 408 kts | 315° |
| 2026-05-07 18:07 | 48.82502 | 16.14054 | 29000 ft | 404 kts | 315° |
| 2026-05-07 18:07 | 48.84675 | 16.11381 | 28600 ft | 400 kts | 315° |
| 2026-05-07 18:08 | 48.86829 | 16.08738 | 28202 ft | 396 kts | 315° |
| 2026-05-07 18:08 | 48.88965 | 16.06140 | 27740 ft | 391 kts | 316° |
| 2026-05-07 18:08 | 48.91080 | 16.03583 | 27172 ft | 387 kts | 316° |
| 2026-05-07 18:08 | 48.93154 | 16.01086 | 26603 ft | 384 kts | 316° |
| 2026-05-07 18:09 | 48.95238 | 15.98582 | 26075 ft | 380 kts | 316° |
| 2026-05-07 18:09 | 48.97304 | 15.96103 | 25570 ft | 375 kts | 316° |
| 2026-05-07 18:09 | 48.99343 | 15.93657 | 25061 ft | 371 kts | 316° |
| 2026-05-07 18:09 | 49.01355 | 15.91240 | 24527 ft | 367 kts | 317° |
| 2026-05-07 18:10 | 49.03350 | 15.88841 | 24034 ft | 363 kts | 317° |
| 2026-05-07 18:10 | 49.05327 | 15.86462 | 23622 ft | 362 kts | 317° |
| 2026-05-07 18:10 | 49.07301 | 15.84080 | 23166 ft | 361 kts | 317° |
| 2026-05-07 18:10 | 49.09267 | 15.81708 | 22765 ft | 359 kts | 317° |
| 2026-05-07 18:11 | 49.11193 | 15.79382 | 22376 ft | 357 kts | 317° |
| 2026-05-07 18:11 | 49.13129 | 15.77042 | 22002 ft | 354 kts | 317° |
| 2026-05-07 18:11 | 49.15052 | 15.74716 | 21626 ft | 351 kts | 317° |
| 2026-05-07 18:11 | 49.16959 | 15.72407 | 21263 ft | 349 kts | 317° |
| 2026-05-07 18:12 | 49.18853 | 15.70111 | 20902 ft | 346 kts | 317° |
| 2026-05-07 18:12 | 49.20730 | 15.67832 | 20540 ft | 344 kts | 317° |
| 2026-05-07 18:12 | 49.22598 | 15.65564 | 20176 ft | 342 kts | 317° |
| 2026-05-07 18:12 | 49.24455 | 15.63306 | 19828 ft | 340 kts | 317° |
| 2026-05-07 18:13 | 49.26299 | 15.61060 | 19468 ft | 338 kts | 317° |
| 2026-05-07 18:13 | 49.28109 | 15.58855 | 19125 ft | 336 kts | 317° |
| 2026-05-07 18:13 | 49.29937 | 15.56625 | 18765 ft | 335 kts | 317° |
| 2026-05-07 18:13 | 49.31756 | 15.54405 | 18419 ft | 334 kts | 317° |
| 2026-05-07 18:14 | 49.33569 | 15.52189 | 18035 ft | 333 kts | 317° |
| 2026-05-07 18:14 | 49.35375 | 15.49980 | 17648 ft | 331 kts | 317° |
| 2026-05-07 18:14 | 49.37171 | 15.47782 | 17276 ft | 330 kts | 317° |
| 2026-05-07 18:14 | 49.38954 | 15.45598 | 17013 ft | 324 kts | 317° |
| 2026-05-07 18:15 | 49.40695 | 15.43465 | 16979 ft | 315 kts | 317° |
| 2026-05-07 18:15 | 49.42304 | 15.41494 | 16956 ft | 305 kts | 317° |
| 2026-05-07 18:15 | 49.43945 | 15.39481 | 16969 ft | 292 kts | 317° |
| 2026-05-07 18:15 | 49.45514 | 15.37555 | 16953 ft | 280 kts | 317° |
| 2026-05-07 18:16 | 49.47000 | 15.35728 | 16958 ft | 267 kts | 316° |
| 2026-05-07 18:16 | 49.48049 | 15.34437 | 16826 ft | 264 kts | 316° |
| 2026-05-07 18:16 | 49.49548 | 15.32584 | 16531 ft | 263 kts | 316° |
| 2026-05-07 18:16 | 49.50984 | 15.30807 | 16136 ft | 267 kts | 316° |
| 2026-05-07 18:17 | 49.52450 | 15.28990 | 15515 ft | 279 kts | 316° |
| 2026-05-07 18:17 | 49.54015 | 15.27044 | 14473 ft | 300 kts | 317° |
| 2026-05-07 18:17 | 49.55648 | 15.25019 | 13765 ft | 307 kts | 317° |
| 2026-05-07 18:17 | 49.57308 | 15.22969 | 13292 ft | 303 kts | 317° |
| 2026-05-07 18:18 | 49.58935 | 15.20961 | 12911 ft | 296 kts | 317° |
| 2026-05-07 18:18 | 49.60523 | 15.18998 | 12566 ft | 289 kts | 317° |
| 2026-05-07 18:18 | 49.62073 | 15.17076 | 12260 ft | 285 kts | 317° |
| 2026-05-07 18:18 | 49.63612 | 15.15163 | 11951 ft | 283 kts | 317° |
| 2026-05-07 18:19 | 49.65150 | 15.13250 | 11651 ft | 285 kts | 317° |
| 2026-05-07 18:19 | 49.66700 | 15.11320 | 11349 ft | 288 kts | 317° |
| 2026-05-07 18:19 | 49.68258 | 15.09380 | 11030 ft | 287 kts | 317° |
| 2026-05-07 18:19 | 49.69803 | 15.07457 | 10709 ft | 284 kts | 317° |
| 2026-05-07 18:20 | 49.71211 | 15.05391 | 10340 ft | 276 kts | 307° |
| 2026-05-07 18:20 | 49.72353 | 15.03135 | 10181 ft | 265 kts | 303° |
| 2026-05-07 18:20 | 49.73427 | 15.00892 | 10028 ft | 252 kts | 303° |
| 2026-05-07 18:20 | 49.74448 | 14.98769 | 9909 ft | 244 kts | 303° |
| 2026-05-07 18:21 | 49.75480 | 14.96652 | 9568 ft | 245 kts | 304° |
| 2026-05-07 18:21 | 49.76510 | 14.94568 | 9296 ft | 243 kts | 304° |
| 2026-05-07 18:21 | 49.77534 | 14.92510 | 9042 ft | 240 kts | 304° |
| 2026-05-07 18:21 | 49.78544 | 14.90484 | 8784 ft | 236 kts | 304° |
| 2026-05-07 18:22 | 49.79544 | 14.88479 | 8538 ft | 234 kts | 304° |
| 2026-05-07 18:22 | 49.80198 | 14.87162 | 8390 ft | 232 kts | 304° |
| 2026-05-07 18:22 | 49.81500 | 14.84524 | 8085 ft | 229 kts | 304° |
| 2026-05-07 18:22 | 49.82446 | 14.82543 | 7844 ft | 228 kts | 304° |
| 2026-05-07 18:23 | 49.83400 | 14.80623 | 7609 ft | 228 kts | 305° |
| 2026-05-07 18:23 | 49.84364 | 14.78683 | 7382 ft | 227 kts | 305° |
| 2026-05-07 18:23 | 49.85327 | 14.76737 | 7139 ft | 227 kts | 305° |
| 2026-05-07 18:23 | 49.86286 | 14.74795 | 6896 ft | 227 kts | 305° |
| 2026-05-07 18:24 | 49.87246 | 14.72848 | 6668 ft | 227 kts | 305° |
| 2026-05-07 18:24 | 49.88216 | 14.70903 | 6422 ft | 228 kts | 306° |
| 2026-05-07 18:24 | 49.89179 | 14.68968 | 6228 ft | 224 kts | 306° |
| 2026-05-07 18:24 | 49.90166 | 14.67141 | 6111 ft | 218 kts | 308° |
| 2026-05-07 18:25 | 49.91121 | 14.65335 | 6044 ft | 216 kts | 306° |
| 2026-05-07 18:25 | 49.92050 | 14.63476 | 5955 ft | 217 kts | 305° |
| 2026-05-07 18:25 | 49.92820 | 14.61894 | 5845 ft | 206 kts | 305° |
| 2026-05-07 18:25 | 49.93656 | 14.60161 | 5745 ft | 195 kts | 304° |
| 2026-05-07 18:26 | 49.94467 | 14.58469 | 5552 ft | 195 kts | 304° |
| 2026-05-07 18:26 | 49.95275 | 14.56784 | 5356 ft | 194 kts | 304° |
| 2026-05-07 18:26 | 49.96080 | 14.55107 | 5146 ft | 193 kts | 304° |
| 2026-05-07 18:26 | 49.96880 | 14.53440 | 4937 ft | 192 kts | 304° |
| 2026-05-07 18:27 | 49.97676 | 14.51782 | 4710 ft | 191 kts | 304° |
| 2026-05-07 18:27 | 49.98466 | 14.50139 | 4499 ft | 189 kts | 304° |
| 2026-05-07 18:27 | 49.99237 | 14.48535 | 4292 ft | 187 kts | 305° |
| 2026-05-07 18:27 | 50.00022 | 14.46902 | 4116 ft | 190 kts | 305° |
| 2026-05-07 18:28 | 50.00818 | 14.45245 | 3979 ft | 194 kts | 305° |
| 2026-05-07 18:28 | 50.01632 | 14.43554 | 3741 ft | 196 kts | 305° |
| 2026-05-07 18:28 | 50.02452 | 14.41850 | 3495 ft | 196 kts | 306° |
| 2026-05-07 18:28 | 50.03252 | 14.40190 | 3230 ft | 187 kts | 306° |
| 2026-05-07 18:29 | 50.04005 | 14.38627 | 2988 ft | 174 kts | 306° |
| 2026-05-07 18:29 | 50.04708 | 14.37164 | 2773 ft | 165 kts | 307° |
| 2026-05-07 18:29 | 50.05382 | 14.35765 | 2554 ft | 158 kts | 308° |
| 2026-05-07 18:29 | 50.06022 | 14.34439 | 2346 ft | 152 kts | 308° |
| 2026-05-07 18:30 | 50.06660 | 14.33129 | 2090 ft | 153 kts | 308° |
| 2026-05-07 18:30 | 50.07292 | 14.31824 | 1902 ft | 147 kts | 307° |
| 2026-05-07 18:30 | 50.07896 | 14.30576 | 1704 ft | 146 kts | 307° |
| 2026-05-07 18:30 | 50.08502 | 14.29303 | 1460 ft | 147 kts | 304° |
| 2026-05-07 18:31 | 50.09103 | 14.28047 | 1264 ft | 144 kts | 305° |
| 2026-05-07 18:31 | 50.09670 | 14.26873 | 1207 ft | 119 kts | 307° |
| 2026-05-07 18:31 | 50.10064 | 14.26060 | 1190 ft | 81 kts | 307° |
| 2026-05-07 18:31 | 50.10286 | 14.25692 | 1186 ft | 7 kts | 339° |
| 2026-05-07 18:32 | 50.10326 | 14.25671 | 1184 ft | 8 kts | 343° |
| 2026-05-07 18:32 | 50.10399 | 14.25666 | 1183 ft | 12 kts | 0° |
| 2026-05-07 18:32 | 50.10478 | 14.25699 | 1178 ft | 12 kts | 56° |
| 2026-05-07 18:32 | 50.10497 | 14.25846 | 1176 ft | 16 kts | 79° |
| 2026-05-07 18:33 | 50.10520 | 14.26008 | 1169 ft | 15 kts | 78° |
| 2026-05-07 18:33 | 50.10534 | 14.26124 | 1170 ft | 9 kts | 80° |
| 2026-05-07 18:33 | 50.10536 | 14.26218 | 1173 ft | 8 kts | 100° |
| 2026-05-07 18:33 | 50.10511 | 14.26299 | 1172 ft | 8 kts | 124° |
| 2026-05-07 18:34 | 50.10480 | 14.26370 | 1169 ft | 8 kts | 124° |
| 2026-05-07 18:34 | 50.10448 | 14.26441 | 1169 ft | 8 kts | 125° |
| 2026-05-07 18:34 | 50.10418 | 14.26508 | 1171 ft | 7 kts | 125° |
| 2026-05-07 18:34 | 50.10390 | 14.26574 | 1172 ft | 7 kts | 124° |
| 2026-05-07 18:35 | 50.10376 | 14.26605 | 1172 ft | 1 kts | 123° |
| 2026-05-07 18:35 | 50.10373 | 14.26613 | 1171 ft | 1 kts | 124° |
| 2026-05-07 18:35 | 50.10365 | 14.26630 | 1170 ft | 3 kts | 124° |
| 2026-05-07 18:35 | 50.10358 | 14.26654 | 1172 ft | 1 kts | 91° |
| 2026-05-07 18:36 | 50.10366 | 14.26664 | 1172 ft | 2 kts | 40° |
| 2026-05-07 18:36 | 50.10375 | 14.26674 | 1170 ft | 1 kts | 36° |
| 2026-05-07 18:36 | 50.10383 | 14.26683 | 1172 ft | 1 kts | 34° |
| 2026-05-07 18:36 | 50.10389 | 14.26690 | 1171 ft | 0 kts | 35° |